Rio Madeira — D5FY9 — position and weather

sailwx.info

Track history (hours):
 
Tides and Currents Weather Stations Pressure Air Temp Water Temp Dewpoint Dewpoint Depression Visibility Wind Speed Wind Dir Waves Ship Positions

Rio Madeira

Last reported at 2018-Mar-20 07:53 UTC. Time now 2018-Jun-19 12:31 UTC.
Position N 53°31' E 009°56'.
Warning: this ship's position is months out of date.

Length 286 m; draft 10.3 m.

Type: Cargo ship. MMSI: 636092571.

Date/timePositionNaut miles runAvg speedWind from/ knotsBaromVisibWave heightAir tempDewpointWater temp
2018-Mar-20 07:53N 53°31' E 009°56'0 0.0
2018-Mar-20 07:30N 53°31' E 009°56'0 0.0
2018-Mar-20 07:01N 53°31' E 009°56'0 0.0
2018-Mar-20 06:31N 53°31' E 009°56'0 0.0
2018-Mar-20 06:00N 53°31' E 009°56'1 1.2
2018-Mar-20 05:31N 53°30' E 009°56'0 0.2
2018-Mar-20 05:00N 53°30' E 009°57'3 5.8
2018-Mar-20 04:31N 53°32' E 009°54'5 9.6
2018-Mar-20 04:00N 53°34' E 009°46'510.5
2018-Mar-20 03:30N 53°35' E 009°37'612.3
2018-Mar-20 03:00N 53°40' E 009°31'612.1
2018-Mar-20 02:30N 53°45' E 009°25'713.8
2018-Mar-20 02:01N 53°51' E 009°20'612.9
2018-Mar-20 01:30N 53°53' E 009°09'612.4
2018-Mar-20 01:00N 53°51' E 008°59'815.2
2018-Mar-20 00:30N 53°51' E 008°47'815.4
2018-Mar-20 00:00N 53°57' E 008°38'917.9
2018-Mar-19 23:30N 53°59' E 008°24'2010.6
2018-Mar-19 21:38N 53°57' E 007°50'0 2.7
2018-Mar-19 21:29N 53°57' E 007°50'1 2.5
2018-Mar-19 20:55N 53°57' E 007°47'2 5.9
2018-Mar-19 20:30N 53°56' E 007°43'6 8.0
2018-Mar-19 19:47N 53°56' E 007°33'1 2.1
2018-Mar-19 19:08N 53°56' E 007°31'1 0.7
2018-Mar-19 17:51N 53°56' E 007°30'1 2.2
2018-Mar-19 17:22N 53°55' E 007°29'47 8.7
2018-Mar-19 12:00N 53°42' E 006°12'2610.5 050 / 151018.210.8 -0.1-10.4 3.0
2018-Mar-19 09:33N 53°35' E 005°31'111.7
2018-Mar-19 09:27N 53°34' E 005°29'811.6
2018-Mar-19 08:48N 53°32' E 005°17'311.5
2018-Mar-19 08:30N 53°31' E 005°11'611.5
2018-Mar-19 08:00N 53°29' E 005°02'611.6
2018-Mar-19 07:27N 53°26' E 004°53'511.7
2018-Mar-19 07:00N 53°24' E 004°45'911.9
2018-Mar-19 06:14N 53°16' E 004°38'512.3
2018-Mar-19 05:52N 53°11' E 004°34'412.2
2018-Mar-19 05:30N 53°08' E 004°30'612.2
2018-Mar-19 05:00N 53°03' E 004°25'612.2
2018-Mar-19 04:30N 52°57' E 004°20'612.0
2018-Mar-19 04:00N 52°52' E 004°15'611.8
2018-Mar-19 03:30N 52°47' E 004°10'611.5
2018-Mar-19 02:58N 52°42' E 004°04'511.4
2018-Mar-19 02:30N 52°38' E 003°58'611.2
2018-Mar-19 02:00N 52°34' E 003°51'610.9
2018-Mar-19 01:29N 52°30' E 003°45'510.5
2018-Mar-19 01:00N 52°27' E 003°39'510.2
2018-Mar-19 00:30N 52°23' E 003°33'710.2
2018-Mar-18 23:52N 52°17' E 003°29'410.2
2018-Mar-18 23:29N 52°13' E 003°27'510.0
2018-Mar-18 22:58N 52°08' E 003°25'610.0
2018-Mar-18 22:23N 52°03' E 003°26'4 9.0
2018-Mar-18 21:59N 51°59' E 003°23'5 9.6
2018-Mar-18 21:30N 51°55' E 003°22'5 9.1
2018-Mar-18 20:59N 51°50' E 003°19'4 9.1
2018-Mar-18 20:29N 51°46' E 003°16'3 6.7
2018-Mar-18 19:58N 51°43' E 003°14'611.5
2018-Mar-18 19:29N 51°38' E 003°11'815.4
2018-Mar-18 19:00N 51°31' E 003°05'714.5
2018-Mar-18 18:30N 51°25' E 002°60'1019.5
2018-Mar-18 18:00N 51°25' E 003°15'1019.9
2018-Mar-18 17:31N 51°26' E 003°31'611.6
2018-Mar-18 17:00N 51°26' E 003°40'714.9
2018-Mar-18 16:30N 51°21' E 003°49'713.3
2018-Mar-18 16:00N 51°25' E 003°57'4 7.6
2018-Mar-18 15:30N 51°23' E 004°03'510.5
2018-Mar-18 15:00N 51°24' E 004°11'4 8.6
2018-Mar-18 14:30N 51°21' E 004°16'0 0.5
2018-Mar-18 14:00N 51°21' E 004°16'0 0.0
2018-Mar-18 13:31N 51°21' E 004°16'0 0.0
2018-Mar-18 13:00N 51°21' E 004°16'0 0.0
2018-Mar-18 12:31N 51°21' E 004°16'0 0.0
2018-Mar-18 12:01N 51°21' E 004°16'0 0.0
2018-Mar-18 11:30N 51°21' E 004°16'0 0.0
2018-Mar-18 11:00N 51°21' E 004°16'0 0.0
2018-Mar-18 10:30N 51°21' E 004°16'0 0.0
2018-Mar-18 09:50N 51°21' E 004°16'0 0.0
2018-Mar-18 09:26N 51°21' E 004°16'0 0.0
2018-Mar-18 09:00N 51°21' E 004°16'0 0.1
2018-Mar-18 08:29N 51°21' E 004°16'0 0.0
2018-Mar-18 07:59N 51°21' E 004°16'0 0.0
2018-Mar-18 07:31N 51°21' E 004°16'0 0.0
2018-Mar-18 06:59N 51°21' E 004°16'0 0.0
2018-Mar-18 06:29N 51°21' E 004°16'0 0.0
2018-Mar-18 06:01N 51°21' E 004°16'0 0.0
2018-Mar-18 05:31N 51°21' E 004°16'0 0.0
2018-Mar-18 05:01N 51°21' E 004°16'0 0.0
2018-Mar-18 04:30N 51°21' E 004°16'0 0.0
2018-Mar-18 03:53N 51°21' E 004°16'0 0.0
2018-Mar-18 03:27N 51°21' E 004°16'0 0.0
2018-Mar-18 02:58N 51°21' E 004°16'0 0.0
2018-Mar-18 02:31N 51°21' E 004°16'0 0.0
2018-Mar-18 02:00N 51°21' E 004°16'0 0.0
2018-Mar-18 01:26N 51°21' E 004°16'0 0.0
2018-Mar-18 00:56N 51°21' E 004°16'0 0.0
2018-Mar-18 00:30N 51°21' E 004°16'0 0.0
2018-Mar-18 00:01N 51°21' E 004°16'0 0.0
2018-Mar-17 23:30N 51°21' E 004°16'0 0.0
2018-Mar-17 23:00N 51°21' E 004°16'0 0.0
2018-Mar-17 22:29N 51°21' E 004°16'0 0.0
2018-Mar-17 21:59N 51°21' E 004°16'0 0.0
2018-Mar-17 21:31N 51°21' E 004°16'0 0.0
2018-Mar-17 20:59N 51°21' E 004°16'0 0.0
2018-Mar-17 20:31N 51°21' E 004°16'0 0.0
2018-Mar-17 20:00N 51°21' E 004°16'0 0.0
2018-Mar-17 19:30N 51°21' E 004°16'0 0.0
2018-Mar-17 19:01N 51°21' E 004°16'0 0.0
2018-Mar-17 18:30N 51°21' E 004°16'0 0.0
2018-Mar-17 18:01N 51°21' E 004°16'0 0.0
2018-Mar-17 17:31N 51°21' E 004°16'0 0.0
2018-Mar-17 16:59N 51°21' E 004°16'0 0.0
2018-Mar-17 16:30N 51°21' E 004°16'0 0.0
2018-Mar-17 16:01N 51°21' E 004°16'0 0.0
2018-Mar-17 15:30N 51°21' E 004°16'0 0.0
2018-Mar-17 15:00N 51°21' E 004°16'0 0.5
2018-Mar-17 14:31N 51°21' E 004°15'4 7.8
2018-Mar-17 14:01N 51°24' E 004°11'611.5
2018-Mar-17 13:30N 51°24' E 004°02'611.5
2018-Mar-17 13:00N 51°21' E 003°54'714.6
2018-Mar-17 12:31N 51°23' E 003°43'611.3
2018-Mar-17 12:00N 51°25' E 003°34'5 9.5
2018-Mar-17 11:31N 51°25' E 003°27'1019.8
2018-Mar-17 11:01N 51°24' E 003°11'917.2
2018-Mar-17 10:30N 51°23' E 002°57'816.6
2018-Mar-17 10:00N 51°21' E 002°44'612.4
2018-Mar-17 09:30N 51°22' E 002°34'815.7
2018-Mar-17 09:01N 51°20' E 002°22'714.3
2018-Mar-17 08:30N 51°18' E 002°11'816.5
2018-Mar-17 08:00N 51°23' E 002°00'918.1
2018-Mar-17 07:30N 51°30' E 001°51'918.9
2018-Mar-17 07:00N 51°39' E 001°46'1019.4
2018-Mar-17 06:30N 51°48' E 001°44'714.4
2018-Mar-17 06:00N 51°52' E 001°34'611.3
2018-Mar-17 05:31N 51°56' E 001°28'611.1
2018-Mar-17 05:00N 51°56' E 001°19'2 3.5
2018-Mar-17 04:30N 51°57' E 001°18'0 0.0
2018-Mar-17 04:00N 51°57' E 001°18'0 0.0
2018-Mar-17 03:28N 51°57' E 001°18'0 0.0
2018-Mar-17 02:58N 51°57' E 001°18'0 0.0
2018-Mar-17 02:28N 51°57' E 001°18'0 0.0
2018-Mar-17 01:58N 51°57' E 001°18'0 0.0
2018-Mar-17 01:28N 51°57' E 001°18'0 0.0
2018-Mar-17 00:58N 51°57' E 001°18'0 0.0
2018-Mar-17 00:28N 51°57' E 001°18'0 0.0
2018-Mar-16 23:58N 51°57' E 001°18'0 0.0
2018-Mar-16 23:28N 51°57' E 001°18'0 0.0
2018-Mar-16 22:58N 51°57' E 001°18'0 0.0
2018-Mar-16 22:28N 51°57' E 001°18'0 0.0
2018-Mar-16 21:58N 51°57' E 001°18'0 0.0
2018-Mar-16 21:28N 51°57' E 001°18'0 0.0
2018-Mar-16 20:58N 51°57' E 001°18'0 0.0
2018-Mar-16 20:28N 51°57' E 001°18'0 0.0
2018-Mar-16 19:58N 51°57' E 001°18'0 0.0
2018-Mar-16 19:28N 51°57' E 001°18'0 0.0
2018-Mar-16 18:58N 51°57' E 001°18'0 0.0
2018-Mar-16 18:28N 51°57' E 001°18'0 0.0
2018-Mar-16 17:58N 51°57' E 001°18'0 0.0
2018-Mar-16 17:28N 51°57' E 001°18'0 0.0
2018-Mar-16 16:58N 51°57' E 001°18'0 0.0
2018-Mar-16 16:28N 51°57' E 001°18'0 0.0
2018-Mar-16 15:58N 51°57' E 001°18'0 0.0
2018-Mar-16 15:28N 51°57' E 001°18'0 0.0
2018-Mar-16 14:58N 51°57' E 001°18'0 0.0
2018-Mar-16 14:28N 51°57' E 001°18'0 0.0
2018-Mar-16 13:58N 51°57' E 001°18'0 0.0
2018-Mar-16 13:28N 51°57' E 001°18'0 0.0
2018-Mar-16 12:58N 51°57' E 001°18'0 0.0
2018-Mar-16 12:28N 51°57' E 001°18'0 0.0
2018-Mar-16 11:58N 51°57' E 001°18'0 0.0
2018-Mar-16 11:28N 51°57' E 001°18'0 0.0
2018-Mar-16 10:58N 51°57' E 001°18'0 0.0
2018-Mar-16 10:28N 51°57' E 001°18'0 0.0
2018-Mar-16 09:58N 51°57' E 001°18'0 0.0
2018-Mar-16 09:28N 51°57' E 001°18'0 0.0
2018-Mar-16 08:58N 51°57' E 001°18'0 0.0
2018-Mar-16 08:28N 51°57' E 001°18'0 0.0
2018-Mar-16 07:58N 51°57' E 001°18'0 0.0
2018-Mar-16 07:28N 51°57' E 001°18'0 0.0
2018-Mar-16 06:58N 51°57' E 001°18'0 0.0
2018-Mar-16 06:28N 51°57' E 001°18'0 0.0
2018-Mar-16 05:58N 51°57' E 001°18'0 0.0
2018-Mar-16 05:28N 51°57' E 001°18'0 0.0
2018-Mar-16 04:58N 51°57' E 001°18'0 0.0
2018-Mar-16 04:28N 51°57' E 001°18'0 0.0
2018-Mar-16 03:58N 51°57' E 001°18'0 0.0
2018-Mar-16 03:28N 51°57' E 001°18'0 0.0
2018-Mar-16 02:58N 51°57' E 001°18'0 0.0
2018-Mar-16 02:28N 51°57' E 001°18'0 0.0
2018-Mar-16 01:22N 51°57' E 001°18'0 0.0
2018-Mar-16 01:00N 51°57' E 001°18'0 0.0
2018-Mar-16 00:30N 51°57' E 001°18'0 0.0
2018-Mar-16 00:00N 51°57' E 001°18'0 0.0
2018-Mar-15 23:30N 51°57' E 001°18'0 0.0
2018-Mar-15 23:00N 51°57' E 001°18'0 0.0
2018-Mar-15 22:30N 51°57' E 001°18'1 1.4
2018-Mar-15 22:00N 51°57' E 001°19'4 7.4
2018-Mar-15 21:30N 51°56' E 001°24'612.1
2018-Mar-15 21:00N 51°54' E 001°34'4 7.6
2018-Mar-15 20:31N 51°52' E 001°39'5 9.8
2018-Mar-15 20:00N 51°50' E 001°46'713.9
2018-Mar-15 19:30N 51°43' E 001°48'714.1
2018-Mar-15 19:00N 51°37' E 001°51'714.6
2018-Mar-15 18:31N 51°30' E 001°57'612.8
2018-Mar-15 18:00N 51°25' E 002°01'612.0
2018-Mar-15 17:30N 51°20' E 001°56'611.2
2018-Mar-15 17:00N 51°15' E 001°51'611.3
2018-Mar-15 16:31N 51°11' E 001°45'611.5
2018-Mar-15 16:00N 51°06' E 001°40'612.0
2018-Mar-15 15:30N 51°01' E 001°34'612.6
2018-Mar-15 15:00N 50°56' E 001°28'712.8
2018-Mar-15 14:26N 50°49' E 001°25'612.6
2018-Mar-15 13:59N 50°44' E 001°22'511.2
2018-Mar-15 13:30N 50°40' E 001°17'611.5
2018-Mar-15 13:00N 50°36' E 001°09'611.2
2018-Mar-15 12:30N 50°33' E 001°02'510.1
2018-Mar-15 12:00N 50°30' E 000°55'611.8
2018-Mar-15 11:30N 50°29' E 000°47'612.4
2018-Mar-15 11:00N 50°27' E 000°37'612.0
2018-Mar-15 10:29N 50°25' E 000°28'612.8
2018-Mar-15 10:00N 50°23' E 000°19'612.9
2018-Mar-15 09:30N 50°21' E 000°09'713.4
2018-Mar-15 09:00N 50°20' W 000°01'713.6
2018-Mar-15 08:30N 50°18' W 000°11'714.0
2018-Mar-15 08:00N 50°16' W 000°22'714.4
2018-Mar-15 07:30N 50°14' W 000°33'714.6
2018-Mar-15 07:00N 50°12' W 000°44'714.8
2018-Mar-15 06:30N 50°10' W 000°55'714.8
2018-Mar-15 06:00N 50°08' W 001°06'914.6
2018-Mar-15 05:24N 50°06' W 001°19'614.2
2018-Mar-15 05:01N 50°04' W 001°28'713.7
2018-Mar-15 04:30N 50°03' W 001°38'713.2
2018-Mar-15 04:00N 50°01' W 001°48'612.5
2018-Mar-15 03:31N 50°00' W 001°58'611.8
2018-Mar-15 03:00N 49°58' W 002°06'611.3
2018-Mar-15 02:30N 49°56' W 002°15'510.8
2018-Mar-15 02:01N 49°55' W 002°23'510.5
2018-Mar-15 01:31N 49°54' W 002°31'510.4
2018-Mar-15 01:01N 49°53' W 002°39'510.4
2018-Mar-15 00:31N 49°51' W 002°46'510.5
2018-Mar-15 00:01N 49°49' W 002°54'510.7
2018-Mar-14 23:30N 49°46' W 003°01'610.9
2018-Mar-14 22:59N 49°44' W 003°09'511.0
2018-Mar-14 22:31N 49°41' W 003°16'8311.7
2018-Mar-14 15:23N 48°59' W 005°06'513.6
2018-Mar-14 14:59N 48°56' W 005°13'713.4
2018-Mar-14 14:29N 48°53' W 005°22'713.4
2018-Mar-14 14:00N 48°50' W 005°31'913.4
2018-Mar-14 13:18N 48°43' W 005°41'613.8
2018-Mar-14 12:52N 48°38' W 005°46'713.8
2018-Mar-14 12:22N 48°32' W 005°51'1113.8
2018-Mar-14 11:35N 48°22' W 005°58'213.7
2018-Mar-14 11:28N 48°21' W 005°59'613.6
2018-Mar-14 11:00N 48°15' W 006°04'1615.9
2018-Mar-14 09:57N 48°01' W 006°15'1021.2
2018-Mar-14 09:30N 47°52' W 006°21'1120.9
2018-Mar-14 08:59N 47°42' W 006°28'52021.6
2018-Mar-13 08:55N 39°23' W 009°49'921.1
2018-Mar-13 08:30N 39°14' W 009°49'1021.2
2018-Mar-13 08:00N 39°04' W 009°50'1121.3
2018-Mar-13 07:30N 38°53' W 009°50'1121.1
2018-Mar-13 07:00N 38°43' W 009°50'1121.2
2018-Mar-13 06:30N 38°32' W 009°48'1020.8
2018-Mar-13 06:00N 38°22' W 009°44'1120.8
2018-Mar-13 05:30N 38°12' W 009°40'1021.1
2018-Mar-13 05:00N 38°02' W 009°38'1020.9
2018-Mar-13 04:30N 37°52' W 009°35'1020.8
2018-Mar-13 04:00N 37°42' W 009°32'1121.1
2018-Mar-13 03:30N 37°31' W 009°30'7918.0
2018-Mar-12 23:05N 36°32' W 008°23'420.0
2018-Mar-12 22:55N 36°31' W 008°19'13620.7
2018-Mar-12 16:22N 35°58' W 005°36'719.8
2018-Mar-12 16:00N 36°00' W 005°27'714.9
2018-Mar-12 15:30N 36°07' W 005°24'3 5.1
2018-Mar-12 15:01N 36°08' W 005°26'0 0.1
2018-Mar-12 14:31N 36°08' W 005°26'0 0.0
2018-Mar-12 14:01N 36°08' W 005°26'0 0.0
2018-Mar-12 13:30N 36°08' W 005°26'0 0.0
2018-Mar-12 13:00N 36°08' W 005°26'0 0.0
2018-Mar-12 12:31N 36°08' W 005°26'0 0.0
2018-Mar-12 12:00N 36°08' W 005°26'0 0.0
2018-Mar-12 11:31N 36°08' W 005°26'0 0.0
2018-Mar-12 11:00N 36°08' W 005°26'0 0.0
2018-Mar-12 10:30N 36°08' W 005°26'0 0.0
2018-Mar-12 10:00N 36°08' W 005°26'0 0.0
2018-Mar-12 09:30N 36°08' W 005°26'0 0.0
2018-Mar-12 09:00N 36°09' W 005°26'0 0.0
2018-Mar-12 08:31N 36°08' W 005°26'0 0.0
2018-Mar-12 08:01N 36°08' W 005°26'0 0.0
2018-Mar-12 07:30N 36°08' W 005°26'0 0.0
2018-Mar-12 07:00N 36°08' W 005°26'0 0.0
2018-Mar-12 06:31N 36°08' W 005°26'0 0.0
2018-Mar-12 06:01N 36°08' W 005°26'0 0.0
2018-Mar-12 05:31N 36°08' W 005°26'0 0.0
2018-Mar-12 05:00N 36°08' W 005°26'0 0.0
2018-Mar-12 04:30N 36°08' W 005°26'0 0.0
2018-Mar-12 04:01N 36°08' W 005°26'0 0.0
2018-Mar-12 03:30N 36°08' W 005°26'0 0.0
2018-Mar-12 03:00N 36°08' W 005°26'0 0.0
2018-Mar-12 02:31N 36°08' W 005°26'0 0.0
2018-Mar-12 02:01N 36°08' W 005°26'0 0.0
2018-Mar-12 01:31N 36°08' W 005°26'1 1.6
2018-Mar-12 01:01N 36°08' W 005°25'0 0.9
2018-Mar-12 00:31N 36°08' W 005°25'0 0.0
2018-Mar-12 00:00N 36°08' W 005°25'0 0.0
2018-Mar-11 23:31N 36°08' W 005°25'0 0.0
2018-Mar-11 22:59N 36°08' W 005°25'0 0.0
2018-Mar-11 22:29N 36°08' W 005°25'0 0.0
2018-Mar-11 21:59N 36°08' W 005°25'0 0.0
2018-Mar-11 21:29N 36°08' W 005°25'0 0.0
2018-Mar-11 20:59N 36°08' W 005°25'0 0.0
2018-Mar-11 20:29N 36°08' W 005°25'0 0.0
2018-Mar-11 19:59N 36°08' W 005°25'0 0.0
2018-Mar-11 19:29N 36°08' W 005°25'0 0.0
2018-Mar-11 18:59N 36°08' W 005°25'0 0.0
2018-Mar-11 18:29N 36°08' W 005°25'0 0.0
2018-Mar-11 17:59N 36°08' W 005°25'0 0.0
2018-Mar-11 17:29N 36°08' W 005°25'0 0.0
2018-Mar-11 16:59N 36°08' W 005°25'0 0.0
2018-Mar-11 16:29N 36°08' W 005°25'0 0.0
2018-Mar-11 16:00N 36°08' W 005°25'0 0.0
2018-Mar-11 15:30N 36°08' W 005°25'0 0.0
2018-Mar-11 15:00N 36°08' W 005°25'0 0.0
2018-Mar-11 14:30N 36°08' W 005°25'0 0.0
2018-Mar-11 14:00N 36°08' W 005°25'0 0.0
2018-Mar-11 13:30N 36°08' W 005°25'0 0.0
2018-Mar-11 13:00N 36°08' W 005°25'0 0.0
2018-Mar-11 12:29N 36°08' W 005°25'0 0.0
2018-Mar-11 12:00N 36°08' W 005°25'0 0.0
2018-Mar-11 11:29N 36°08' W 005°25'0 0.0
2018-Mar-11 11:00N 36°08' W 005°25'0 0.0
2018-Mar-11 10:30N 36°08' W 005°25'1 2.0
2018-Mar-11 10:00N 36°09' W 005°25'3 6.8
2018-Mar-11 09:30N 36°06' W 005°23'2 4.1
2018-Mar-11 09:00N 36°04' W 005°22'1 2.1
2018-Mar-11 08:30N 36°04' W 005°23'1 1.2
2018-Mar-11 08:00N 36°04' W 005°23'0 0.6
2018-Mar-11 07:30N 36°03' W 005°23'0 0.4
2018-Mar-11 07:00N 36°03' W 005°23'1 1.5
2018-Mar-11 06:30N 36°04' W 005°22'1 1.2
2018-Mar-11 06:00N 36°04' W 005°21'0 0.7
2018-Mar-11 05:30N 36°04' W 005°21'4 7.8
2018-Mar-11 05:00N 36°02' W 005°17'611.1
2018-Mar-11 04:30N 36°03' W 005°10'4710.4
2018-Mar-11 00:00N 36°06' W 004°12'12210.2 270 / 301010.710.8 15.612.216.0
2018-Mar-10 12:00N 36°24' W 001°42'   180 / 111009.610.8 17.114.216.0
Track history (hours):
 
Tides and Currents Weather Stations Pressure Air Temp Water Temp Dewpoint Dewpoint Depression Visibility Wind Speed Wind Dir Waves Ship Positions

Rio Madeira

Last reported at 2018-Mar-20 07:53 UTC. Time now 2018-Jun-19 12:31 UTC.
Position N 53°31' E 009°56'.
Warning: this ship's position is months out of date.

Length 286 m; draft 10.3 m.

Type: Cargo ship. MMSI: 636092571.

Date/timePositionNaut miles runAvg speedWind from/ knotsBaromVisibWave heightAir tempDewpointWater temp
2018-Mar-20 07:53N 53°31' E 009°56'0 0.0
2018-Mar-20 07:30N 53°31' E 009°56'0 0.0
2018-Mar-20 07:01N 53°31' E 009°56'0 0.0
2018-Mar-20 06:31N 53°31' E 009°56'0 0.0
2018-Mar-20 06:00N 53°31' E 009°56'1 1.2
2018-Mar-20 05:31N 53°30' E 009°56'0 0.2
2018-Mar-20 05:00N 53°30' E 009°57'3 5.8
2018-Mar-20 04:31N 53°32' E 009°54'5 9.6
2018-Mar-20 04:00N 53°34' E 009°46'510.5
2018-Mar-20 03:30N 53°35' E 009°37'612.3
2018-Mar-20 03:00N 53°40' E 009°31'612.1
2018-Mar-20 02:30N 53°45' E 009°25'713.8
2018-Mar-20 02:01N 53°51' E 009°20'612.9
2018-Mar-20 01:30N 53°53' E 009°09'612.4
2018-Mar-20 01:00N 53°51' E 008°59'815.2
2018-Mar-20 00:30N 53°51' E 008°47'815.4
2018-Mar-20 00:00N 53°57' E 008°38'917.9
2018-Mar-19 23:30N 53°59' E 008°24'2010.6
2018-Mar-19 21:38N 53°57' E 007°50'0 2.7
2018-Mar-19 21:29N 53°57' E 007°50'1 2.5
2018-Mar-19 20:55N 53°57' E 007°47'2 5.9
2018-Mar-19 20:30N 53°56' E 007°43'6 8.0
2018-Mar-19 19:47N 53°56' E 007°33'1 2.1
2018-Mar-19 19:08N 53°56' E 007°31'1 0.7
2018-Mar-19 17:51N 53°56' E 007°30'1 2.2
2018-Mar-19 17:22N 53°55' E 007°29'47 8.7
2018-Mar-19 12:00N 53°42' E 006°12'2610.5 050 / 151018.210.8 -0.1-10.4 3.0
2018-Mar-19 09:33N 53°35' E 005°31'111.7
2018-Mar-19 09:27N 53°34' E 005°29'811.6
2018-Mar-19 08:48N 53°32' E 005°17'311.5
2018-Mar-19 08:30N 53°31' E 005°11'611.5
2018-Mar-19 08:00N 53°29' E 005°02'611.6
2018-Mar-19 07:27N 53°26' E 004°53'511.7
2018-Mar-19 07:00N 53°24' E 004°45'911.9
2018-Mar-19 06:14N 53°16' E 004°38'512.3
2018-Mar-19 05:52N 53°11' E 004°34'412.2
2018-Mar-19 05:30N 53°08' E 004°30'612.2
2018-Mar-19 05:00N 53°03' E 004°25'612.2
2018-Mar-19 04:30N 52°57' E 004°20'612.0
2018-Mar-19 04:00N 52°52' E 004°15'611.8
2018-Mar-19 03:30N 52°47' E 004°10'611.5
2018-Mar-19 02:58N 52°42' E 004°04'511.4
2018-Mar-19 02:30N 52°38' E 003°58'611.2
2018-Mar-19 02:00N 52°34' E 003°51'610.9
2018-Mar-19 01:29N 52°30' E 003°45'510.5
2018-Mar-19 01:00N 52°27' E 003°39'510.2
2018-Mar-19 00:30N 52°23' E 003°33'710.2
2018-Mar-18 23:52N 52°17' E 003°29'410.2
2018-Mar-18 23:29N 52°13' E 003°27'510.0
2018-Mar-18 22:58N 52°08' E 003°25'610.0
2018-Mar-18 22:23N 52°03' E 003°26'4 9.0
2018-Mar-18 21:59N 51°59' E 003°23'5 9.6
2018-Mar-18 21:30N 51°55' E 003°22'5 9.1
2018-Mar-18 20:59N 51°50' E 003°19'4 9.1
2018-Mar-18 20:29N 51°46' E 003°16'3 6.7
2018-Mar-18 19:58N 51°43' E 003°14'611.5
2018-Mar-18 19:29N 51°38' E 003°11'815.4
2018-Mar-18 19:00N 51°31' E 003°05'714.5
2018-Mar-18 18:30N 51°25' E 002°60'1019.5
2018-Mar-18 18:00N 51°25' E 003°15'1019.9
2018-Mar-18 17:31N 51°26' E 003°31'611.6
2018-Mar-18 17:00N 51°26' E 003°40'714.9
2018-Mar-18 16:30N 51°21' E 003°49'713.3
2018-Mar-18 16:00N 51°25' E 003°57'4 7.6
2018-Mar-18 15:30N 51°23' E 004°03'510.5
2018-Mar-18 15:00N 51°24' E 004°11'4 8.6
2018-Mar-18 14:30N 51°21' E 004°16'0 0.5
2018-Mar-18 14:00N 51°21' E 004°16'0 0.0
2018-Mar-18 13:31N 51°21' E 004°16'0 0.0
2018-Mar-18 13:00N 51°21' E 004°16'0 0.0
2018-Mar-18 12:31N 51°21' E 004°16'0 0.0
2018-Mar-18 12:01N 51°21' E 004°16'0 0.0
2018-Mar-18 11:30N 51°21' E 004°16'0 0.0
2018-Mar-18 11:00N 51°21' E 004°16'0 0.0
2018-Mar-18 10:30N 51°21' E 004°16'0 0.0
2018-Mar-18 09:50N 51°21' E 004°16'0 0.0
2018-Mar-18 09:26N 51°21' E 004°16'0 0.0
2018-Mar-18 09:00N 51°21' E 004°16'0 0.1
2018-Mar-18 08:29N 51°21' E 004°16'0 0.0
2018-Mar-18 07:59N 51°21' E 004°16'0 0.0
2018-Mar-18 07:31N 51°21' E 004°16'0 0.0
2018-Mar-18 06:59N 51°21' E 004°16'0 0.0
2018-Mar-18 06:29N 51°21' E 004°16'0 0.0
2018-Mar-18 06:01N 51°21' E 004°16'0 0.0
2018-Mar-18 05:31N 51°21' E 004°16'0 0.0
2018-Mar-18 05:01N 51°21' E 004°16'0 0.0
2018-Mar-18 04:30N 51°21' E 004°16'0 0.0
2018-Mar-18 03:53N 51°21' E 004°16'0 0.0
2018-Mar-18 03:27N 51°21' E 004°16'0 0.0
2018-Mar-18 02:58N 51°21' E 004°16'0 0.0
2018-Mar-18 02:31N 51°21' E 004°16'0 0.0
2018-Mar-18 02:00N 51°21' E 004°16'0 0.0
2018-Mar-18 01:26N 51°21' E 004°16'0 0.0
2018-Mar-18 00:56N 51°21' E 004°16'0 0.0
2018-Mar-18 00:30N 51°21' E 004°16'0 0.0
2018-Mar-18 00:01N 51°21' E 004°16'0 0.0
2018-Mar-17 23:30N 51°21' E 004°16'0 0.0
2018-Mar-17 23:00N 51°21' E 004°16'0 0.0
2018-Mar-17 22:29N 51°21' E 004°16'0 0.0
2018-Mar-17 21:59N 51°21' E 004°16'0 0.0
2018-Mar-17 21:31N 51°21' E 004°16'0 0.0
2018-Mar-17 20:59N 51°21' E 004°16'0 0.0
2018-Mar-17 20:31N 51°21' E 004°16'0 0.0
2018-Mar-17 20:00N 51°21' E 004°16'0 0.0
2018-Mar-17 19:30N 51°21' E 004°16'0 0.0
2018-Mar-17 19:01N 51°21' E 004°16'0 0.0
2018-Mar-17 18:30N 51°21' E 004°16'0 0.0
2018-Mar-17 18:01N 51°21' E 004°16'0 0.0
2018-Mar-17 17:31N 51°21' E 004°16'0 0.0
2018-Mar-17 16:59N 51°21' E 004°16'0 0.0
2018-Mar-17 16:30N 51°21' E 004°16'0 0.0
2018-Mar-17 16:01N 51°21' E 004°16'0 0.0
2018-Mar-17 15:30N 51°21' E 004°16'0 0.0
2018-Mar-17 15:00N 51°21' E 004°16'0 0.5
2018-Mar-17 14:31N 51°21' E 004°15'4 7.8
2018-Mar-17 14:01N 51°24' E 004°11'611.5
2018-Mar-17 13:30N 51°24' E 004°02'611.5
2018-Mar-17 13:00N 51°21' E 003°54'714.6
2018-Mar-17 12:31N 51°23' E 003°43'611.3
2018-Mar-17 12:00N 51°25' E 003°34'5 9.5
2018-Mar-17 11:31N 51°25' E 003°27'1019.8
2018-Mar-17 11:01N 51°24' E 003°11'917.2
2018-Mar-17 10:30N 51°23' E 002°57'816.6
2018-Mar-17 10:00N 51°21' E 002°44'612.4
2018-Mar-17 09:30N 51°22' E 002°34'815.7
2018-Mar-17 09:01N 51°20' E 002°22'714.3
2018-Mar-17 08:30N 51°18' E 002°11'816.5
2018-Mar-17 08:00N 51°23' E 002°00'918.1
2018-Mar-17 07:30N 51°30' E 001°51'918.9
2018-Mar-17 07:00N 51°39' E 001°46'1019.4
2018-Mar-17 06:30N 51°48' E 001°44'714.4
2018-Mar-17 06:00N 51°52' E 001°34'611.3
2018-Mar-17 05:31N 51°56' E 001°28'611.1
2018-Mar-17 05:00N 51°56' E 001°19'2 3.5
2018-Mar-17 04:30N 51°57' E 001°18'0 0.0
2018-Mar-17 04:00N 51°57' E 001°18'0 0.0
2018-Mar-17 03:28N 51°57' E 001°18'0 0.0
2018-Mar-17 02:58N 51°57' E 001°18'0 0.0
2018-Mar-17 02:28N 51°57' E 001°18'0 0.0
2018-Mar-17 01:58N 51°57' E 001°18'0 0.0
2018-Mar-17 01:28N 51°57' E 001°18'0 0.0
2018-Mar-17 00:58N 51°57' E 001°18'0 0.0
2018-Mar-17 00:28N 51°57' E 001°18'0 0.0
2018-Mar-16 23:58N 51°57' E 001°18'0 0.0
2018-Mar-16 23:28N 51°57' E 001°18'0 0.0
2018-Mar-16 22:58N 51°57' E 001°18'0 0.0
2018-Mar-16 22:28N 51°57' E 001°18'0 0.0
2018-Mar-16 21:58N 51°57' E 001°18'0 0.0
2018-Mar-16 21:28N 51°57' E 001°18'0 0.0
2018-Mar-16 20:58N 51°57' E 001°18'0 0.0
2018-Mar-16 20:28N 51°57' E 001°18'0 0.0
2018-Mar-16 19:58N 51°57' E 001°18'0 0.0
2018-Mar-16 19:28N 51°57' E 001°18'0 0.0
2018-Mar-16 18:58N 51°57' E 001°18'0 0.0
2018-Mar-16 18:28N 51°57' E 001°18'0 0.0
2018-Mar-16 17:58N 51°57' E 001°18'0 0.0
2018-Mar-16 17:28N 51°57' E 001°18'0 0.0
2018-Mar-16 16:58N 51°57' E 001°18'0 0.0
2018-Mar-16 16:28N 51°57' E 001°18'0 0.0
2018-Mar-16 15:58N 51°57' E 001°18'0 0.0
2018-Mar-16 15:28N 51°57' E 001°18'0 0.0
2018-Mar-16 14:58N 51°57' E 001°18'0 0.0
2018-Mar-16 14:28N 51°57' E 001°18'0 0.0
2018-Mar-16 13:58N 51°57' E 001°18'0 0.0
2018-Mar-16 13:28N 51°57' E 001°18'0 0.0
2018-Mar-16 12:58N 51°57' E 001°18'0 0.0
2018-Mar-16 12:28N 51°57' E 001°18'0 0.0
2018-Mar-16 11:58N 51°57' E 001°18'0 0.0
2018-Mar-16 11:28N 51°57' E 001°18'0 0.0
2018-Mar-16 10:58N 51°57' E 001°18'0 0.0
2018-Mar-16 10:28N 51°57' E 001°18'0 0.0
2018-Mar-16 09:58N 51°57' E 001°18'0 0.0
2018-Mar-16 09:28N 51°57' E 001°18'0 0.0
2018-Mar-16 08:58N 51°57' E 001°18'0 0.0
2018-Mar-16 08:28N 51°57' E 001°18'0 0.0
2018-Mar-16 07:58N 51°57' E 001°18'0 0.0
2018-Mar-16 07:28N 51°57' E 001°18'0 0.0
2018-Mar-16 06:58N 51°57' E 001°18'0 0.0
2018-Mar-16 06:28N 51°57' E 001°18'0 0.0
2018-Mar-16 05:58N 51°57' E 001°18'0 0.0
2018-Mar-16 05:28N 51°57' E 001°18'0 0.0
2018-Mar-16 04:58N 51°57' E 001°18'0 0.0
2018-Mar-16 04:28N 51°57' E 001°18'0 0.0
2018-Mar-16 03:58N 51°57' E 001°18'0 0.0
2018-Mar-16 03:28N 51°57' E 001°18'0 0.0
2018-Mar-16 02:58N 51°57' E 001°18'0 0.0
2018-Mar-16 02:28N 51°57' E 001°18'0 0.0
2018-Mar-16 01:22N 51°57' E 001°18'0 0.0
2018-Mar-16 01:00N 51°57' E 001°18'0 0.0
2018-Mar-16 00:30N 51°57' E 001°18'0 0.0
2018-Mar-16 00:00N 51°57' E 001°18'0 0.0
2018-Mar-15 23:30N 51°57' E 001°18'0 0.0
2018-Mar-15 23:00N 51°57' E 001°18'0 0.0
2018-Mar-15 22:30N 51°57' E 001°18'1 1.4
2018-Mar-15 22:00N 51°57' E 001°19'4 7.4
2018-Mar-15 21:30N 51°56' E 001°24'612.1
2018-Mar-15 21:00N 51°54' E 001°34'4 7.6
2018-Mar-15 20:31N 51°52' E 001°39'5 9.8
2018-Mar-15 20:00N 51°50' E 001°46'713.9
2018-Mar-15 19:30N 51°43' E 001°48'714.1
2018-Mar-15 19:00N 51°37' E 001°51'714.6
2018-Mar-15 18:31N 51°30' E 001°57'612.8
2018-Mar-15 18:00N 51°25' E 002°01'612.0
2018-Mar-15 17:30N 51°20' E 001°56'611.2
2018-Mar-15 17:00N 51°15' E 001°51'611.3
2018-Mar-15 16:31N 51°11' E 001°45'611.5
2018-Mar-15 16:00N 51°06' E 001°40'612.0
2018-Mar-15 15:30N 51°01' E 001°34'612.6
2018-Mar-15 15:00N 50°56' E 001°28'712.8
2018-Mar-15 14:26N 50°49' E 001°25'612.6
2018-Mar-15 13:59N 50°44' E 001°22'511.2
2018-Mar-15 13:30N 50°40' E 001°17'611.5
2018-Mar-15 13:00N 50°36' E 001°09'611.2
2018-Mar-15 12:30N 50°33' E 001°02'510.1
2018-Mar-15 12:00N 50°30' E 000°55'611.8
2018-Mar-15 11:30N 50°29' E 000°47'612.4
2018-Mar-15 11:00N 50°27' E 000°37'612.0
2018-Mar-15 10:29N 50°25' E 000°28'612.8
2018-Mar-15 10:00N 50°23' E 000°19'612.9
2018-Mar-15 09:30N 50°21' E 000°09'713.4
2018-Mar-15 09:00N 50°20' W 000°01'713.6
2018-Mar-15 08:30N 50°18' W 000°11'714.0
2018-Mar-15 08:00N 50°16' W 000°22'714.4
2018-Mar-15 07:30N 50°14' W 000°33'714.6
2018-Mar-15 07:00N 50°12' W 000°44'714.8
2018-Mar-15 06:30N 50°10' W 000°55'714.8
2018-Mar-15 06:00N 50°08' W 001°06'914.6
2018-Mar-15 05:24N 50°06' W 001°19'614.2
2018-Mar-15 05:01N 50°04' W 001°28'713.7
2018-Mar-15 04:30N 50°03' W 001°38'713.2
2018-Mar-15 04:00N 50°01' W 001°48'612.5
2018-Mar-15 03:31N 50°00' W 001°58'611.8
2018-Mar-15 03:00N 49°58' W 002°06'611.3
2018-Mar-15 02:30N 49°56' W 002°15'510.8
2018-Mar-15 02:01N 49°55' W 002°23'510.5
2018-Mar-15 01:31N 49°54' W 002°31'510.4
2018-Mar-15 01:01N 49°53' W 002°39'510.4
2018-Mar-15 00:31N 49°51' W 002°46'510.5
2018-Mar-15 00:01N 49°49' W 002°54'510.7
2018-Mar-14 23:30N 49°46' W 003°01'610.9
2018-Mar-14 22:59N 49°44' W 003°09'511.0
2018-Mar-14 22:31N 49°41' W 003°16'8311.7
2018-Mar-14 15:23N 48°59' W 005°06'513.6
2018-Mar-14 14:59N 48°56' W 005°13'713.4
2018-Mar-14 14:29N 48°53' W 005°22'713.4
2018-Mar-14 14:00N 48°50' W 005°31'913.4
2018-Mar-14 13:18N 48°43' W 005°41'613.8
2018-Mar-14 12:52N 48°38' W 005°46'713.8
2018-Mar-14 12:22N 48°32' W 005°51'1113.8
2018-Mar-14 11:35N 48°22' W 005°58'213.7
2018-Mar-14 11:28N 48°21' W 005°59'613.6
2018-Mar-14 11:00N 48°15' W 006°04'1615.9
2018-Mar-14 09:57N 48°01' W 006°15'1021.2
2018-Mar-14 09:30N 47°52' W 006°21'1120.9
2018-Mar-14 08:59N 47°42' W 006°28'52021.6
2018-Mar-13 08:55N 39°23' W 009°49'921.1
2018-Mar-13 08:30N 39°14' W 009°49'1021.2
2018-Mar-13 08:00N 39°04' W 009°50'1121.3
2018-Mar-13 07:30N 38°53' W 009°50'1121.1
2018-Mar-13 07:00N 38°43' W 009°50'1121.2
2018-Mar-13 06:30N 38°32' W 009°48'1020.8
2018-Mar-13 06:00N 38°22' W 009°44'1120.8
2018-Mar-13 05:30N 38°12' W 009°40'1021.1
2018-Mar-13 05:00N 38°02' W 009°38'1020.9
2018-Mar-13 04:30N 37°52' W 009°35'1020.8
2018-Mar-13 04:00N 37°42' W 009°32'1121.1
2018-Mar-13 03:30N 37°31' W 009°30'7918.0
2018-Mar-12 23:05N 36°32' W 008°23'420.0
2018-Mar-12 22:55N 36°31' W 008°19'13620.7
2018-Mar-12 16:22N 35°58' W 005°36'719.8
2018-Mar-12 16:00N 36°00' W 005°27'714.9
2018-Mar-12 15:30N 36°07' W 005°24'3 5.1
2018-Mar-12 15:01N 36°08' W 005°26'0 0.1
2018-Mar-12 14:31N 36°08' W 005°26'0 0.0
2018-Mar-12 14:01N 36°08' W 005°26'0 0.0
2018-Mar-12 13:30N 36°08' W 005°26'0 0.0
2018-Mar-12 13:00N 36°08' W 005°26'0 0.0
2018-Mar-12 12:31N 36°08' W 005°26'0 0.0
2018-Mar-12 12:00N 36°08' W 005°26'0 0.0
2018-Mar-12 11:31N 36°08' W 005°26'0 0.0
2018-Mar-12 11:00N 36°08' W 005°26'0 0.0
2018-Mar-12 10:30N 36°08' W 005°26'0 0.0
2018-Mar-12 10:00N 36°08' W 005°26'0 0.0
2018-Mar-12 09:30N 36°08' W 005°26'0 0.0
2018-Mar-12 09:00N 36°09' W 005°26'0 0.0
2018-Mar-12 08:31N 36°08' W 005°26'0 0.0
2018-Mar-12 08:01N 36°08' W 005°26'0 0.0
2018-Mar-12 07:30N 36°08' W 005°26'0 0.0
2018-Mar-12 07:00N 36°08' W 005°26'0 0.0
2018-Mar-12 06:31N 36°08' W 005°26'0 0.0
2018-Mar-12 06:01N 36°08' W 005°26'0 0.0
2018-Mar-12 05:31N 36°08' W 005°26'0 0.0
2018-Mar-12 05:00N 36°08' W 005°26'0 0.0
2018-Mar-12 04:30N 36°08' W 005°26'0 0.0
2018-Mar-12 04:01N 36°08' W 005°26'0 0.0
2018-Mar-12 03:30N 36°08' W 005°26'0 0.0
2018-Mar-12 03:00N 36°08' W 005°26'0 0.0
2018-Mar-12 02:31N 36°08' W 005°26'0 0.0
2018-Mar-12 02:01N 36°08' W 005°26'0 0.0
2018-Mar-12 01:31N 36°08' W 005°26'1 1.6
2018-Mar-12 01:01N 36°08' W 005°25'0 0.9
2018-Mar-12 00:31N 36°08' W 005°25'0 0.0
2018-Mar-12 00:00N 36°08' W 005°25'0 0.0
2018-Mar-11 23:31N 36°08' W 005°25'0 0.0
2018-Mar-11 22:59N 36°08' W 005°25'0 0.0
2018-Mar-11 22:29N 36°08' W 005°25'0 0.0
2018-Mar-11 21:59N 36°08' W 005°25'0 0.0
2018-Mar-11 21:29N 36°08' W 005°25'0 0.0
2018-Mar-11 20:59N 36°08' W 005°25'0 0.0
2018-Mar-11 20:29N 36°08' W 005°25'0 0.0
2018-Mar-11 19:59N 36°08' W 005°25'0 0.0
2018-Mar-11 19:29N 36°08' W 005°25'0 0.0
2018-Mar-11 18:59N 36°08' W 005°25'0 0.0
2018-Mar-11 18:29N 36°08' W 005°25'0 0.0
2018-Mar-11 17:59N 36°08' W 005°25'0 0.0
2018-Mar-11 17:29N 36°08' W 005°25'0 0.0
2018-Mar-11 16:59N 36°08' W 005°25'0 0.0
2018-Mar-11 16:29N 36°08' W 005°25'0 0.0
2018-Mar-11 16:00N 36°08' W 005°25'0 0.0
2018-Mar-11 15:30N 36°08' W 005°25'0 0.0
2018-Mar-11 15:00N 36°08' W 005°25'0 0.0
2018-Mar-11 14:30N 36°08' W 005°25'0 0.0
2018-Mar-11 14:00N 36°08' W 005°25'0 0.0
2018-Mar-11 13:30N 36°08' W 005°25'0 0.0
2018-Mar-11 13:00N 36°08' W 005°25'0 0.0
2018-Mar-11 12:29N 36°08' W 005°25'0 0.0
2018-Mar-11 12:00N 36°08' W 005°25'0 0.0
2018-Mar-11 11:29N 36°08' W 005°25'0 0.0
2018-Mar-11 11:00N 36°08' W 005°25'0 0.0
2018-Mar-11 10:30N 36°08' W 005°25'1 2.0
2018-Mar-11 10:00N 36°09' W 005°25'3 6.8
2018-Mar-11 09:30N 36°06' W 005°23'2 4.1
2018-Mar-11 09:00N 36°04' W 005°22'1 2.1
2018-Mar-11 08:30N 36°04' W 005°23'1 1.2
2018-Mar-11 08:00N 36°04' W 005°23'0 0.6
2018-Mar-11 07:30N 36°03' W 005°23'0 0.4
2018-Mar-11 07:00N 36°03' W 005°23'1 1.5
2018-Mar-11 06:30N 36°04' W 005°22'1 1.2
2018-Mar-11 06:00N 36°04' W 005°21'0 0.7
2018-Mar-11 05:30N 36°04' W 005°21'4 7.8
2018-Mar-11 05:00N 36°02' W 005°17'611.1
2018-Mar-11 04:30N 36°03' W 005°10'4710.4
2018-Mar-11 00:00N 36°06' W 004°12'12210.2 270 / 301010.710.8 15.612.216.0
2018-Mar-10 12:00N 36°24' W 001°42'   180 / 111009.610.8 17.114.216.0

Dump ship's entire track history